sensor_id;sensor_type;location;lat;lon;timestamp;pressure;altitude;pressure_sealevel;temperature;humidity
23253;BME280;11795;47.054;15.408;2023-11-22T00:01:57;97160;;;5.0;100.0
23253;BME280;11795;47.054;15.408;2023-11-22T00:03:58;97160;;;5.1;100.0
23253;BME280;11795;47.054;15.408;2023-11-22T00:05:57;97160;;;5.0;100.0
23253;BME280;11795;47.054;15.408;2023-11-22T00:07:57;97160;;;4.9;100.0
23253;BME280;11795;47.054;15.408;2023-11-22T00:09:58;97160;;;5.0;100.0
23253;BME280;11795;47.054;15.408;2023-11-22T00:11:59;97160;;;4.9;100.0
23253;BME280;11795;47.054;15.408;2023-11-22T00:13:57;97160;;;5.1;100.0
23253;BME280;11795;47.054;15.408;2023-11-22T00:15:57;97160;;;4.8;99.9
23253;BME280;11795;47.054;15.408;2023-11-22T00:17:58;97160;;;4.8;100.0
23253;BME280;11795;47.054;15.408;2023-11-22T00:19:57;97150;;;4.8;99.4
23253;BME280;11795;47.054;15.408;2023-11-22T00:21:57;97160;;;4.7;100.0
23253;BME280;11795;47.054;15.408;2023-11-22T00:23:58;97150;;;4.9;99.9
23253;BME280;11795;47.054;15.408;2023-11-22T00:25:57;97150;;;4.8;99.8
23253;BME280;11795;47.054;15.408;2023-11-22T00:27:57;97150;;;4.7;100.0
23253;BME280;11795;47.054;15.408;2023-11-22T00:29:57;97150;;;4.8;99.5
23253;BME280;11795;47.054;15.408;2023-11-22T00:31:57;97150;;;4.8;98.5
23253;BME280;11795;47.054;15.408;2023-11-22T00:33:57;97160;;;4.8;97.1
23253;BME280;11795;47.054;15.408;2023-11-22T00:35:58;97150;;;4.6;97.3
23253;BME280;11795;47.054;15.408;2023-11-22T00:37:58;97160;;;4.5;97.8
23253;BME280;11795;47.054;15.408;2023-11-22T00:39:59;97160;;;4.5;97.2
23253;BME280;11795;47.054;15.408;2023-11-22T00:41:57;97160;;;4.4;97.9
23253;BME280;11795;47.054;15.408;2023-11-22T00:43:57;97160;;;4.6;97.7
23253;BME280;11795;47.054;15.408;2023-11-22T00:45:57;97170;;;4.3;97.8
23253;BME280;11795;47.054;15.408;2023-11-22T00:47:57;97170;;;4.2;98.6
23253;BME280;11795;47.054;15.408;2023-11-22T00:49:57;97160;;;4.3;98.3
23253;BME280;11795;47.054;15.408;2023-11-22T00:51:58;97160;;;4.2;99.0
23253;BME280;11795;47.054;15.408;2023-11-22T00:53:57;97160;;;4.5;98.8
23253;BME280;11795;47.054;15.408;2023-11-22T00:55:57;97170;;;4.3;98.9
23253;BME280;11795;47.054;15.408;2023-11-22T00:58:03;97160;;;4.3;99.5
23253;BME280;11795;47.054;15.408;2023-11-22T00:59:57;97160;;;4.4;98.6
23253;BME280;11795;47.054;15.408;2023-11-22T01:01:57;97160;;;4.3;99.0
23253;BME280;11795;47.054;15.408;2023-11-22T01:03:57;97160;;;4.5;98.7
23253;BME280;11795;47.054;15.408;2023-11-22T01:05:57;97160;;;4.3;99.0
23253;BME280;11795;47.054;15.408;2023-11-22T01:07:57;97160;;;4.2;99.6
23253;BME280;11795;47.054;15.408;2023-11-22T01:09:57;97160;;;4.4;98.9
23253;BME280;11795;47.054;15.408;2023-11-22T01:11:57;97170;;;4.3;99.5
23253;BME280;11795;47.054;15.408;2023-11-22T01:13:57;97170;;;4.5;98.8
23253;BME280;11795;47.054;15.408;2023-11-22T01:15:57;97170;;;4.3;98.5
23253;BME280;11795;47.054;15.408;2023-11-22T01:17:57;97170;;;4.2;99.0
23253;BME280;11795;47.054;15.408;2023-11-22T01:19:58;97180;;;4.3;97.9
23253;BME280;11795;47.054;15.408;2023-11-22T01:21:57;97180;;;4.2;98.4
23253;BME280;11795;47.054;15.408;2023-11-22T01:23:58;97180;;;4.3;97.8
23253;BME280;11795;47.054;15.408;2023-11-22T01:25:57;97180;;;4.1;97.7
23253;BME280;11795;47.054;15.408;2023-11-22T01:27:57;97180;;;4.1;98.1
23253;BME280;11795;47.054;15.408;2023-11-22T01:29:57;97180;;;4.1;97.1
23253;BME280;11795;47.054;15.408;2023-11-22T01:31:57;97180;;;3.9;98.3
23253;BME280;11795;47.054;15.408;2023-11-22T01:33:59;97180;;;4.1;98.0
23253;BME280;11795;47.054;15.408;2023-11-22T01:35:57;97180;;;4.0;97.9
23253;BME280;11795;47.054;15.408;2023-11-22T01:37:58;97190;;;3.9;98.4
23253;BME280;11795;47.054;15.408;2023-11-22T01:39:57;97190;;;4.0;97.6
23253;BME280;11795;47.054;15.408;2023-11-22T01:41:57;97190;;;3.9;98.1
23253;BME280;11795;47.054;15.408;2023-11-22T01:43:58;97190;;;4.1;97.3
23253;BME280;11795;47.054;15.408;2023-11-22T01:45:57;97190;;;3.9;97.2
23253;BME280;11795;47.054;15.408;2023-11-22T01:47:57;97190;;;3.8;97.6
23253;BME280;11795;47.054;15.408;2023-11-22T01:49:57;97190;;;3.9;96.8
23253;BME280;11795;47.054;15.408;2023-11-22T01:51:57;97190;;;3.8;97.1
23253;BME280;11795;47.054;15.408;2023-11-22T01:53:58;97200;;;3.9;96.6
23253;BME280;11795;47.054;15.408;2023-11-22T01:55:57;97200;;;3.5;97.3
23253;BME280;11795;47.054;15.408;2023-11-22T01:57:57;97200;;;3.5;98.0
23253;BME280;11795;47.054;15.408;2023-11-22T01:59:57;97190;;;3.5;97.7
23253;BME280;11795;47.054;15.408;2023-11-22T02:01:57;97200;;;3.2;100.0
23253;BME280;11795;47.054;15.408;2023-11-22T02:03:58;97200;;;3.4;100.0
23253;BME280;11795;47.054;15.408;2023-11-22T02:05:57;97200;;;3.3;99.8
23253;BME280;11795;47.054;15.408;2023-11-22T02:07:57;97200;;;3.3;99.7
23253;BME280;11795;47.054;15.408;2023-11-22T02:09:58;97210;;;3.4;98.9
23253;BME280;11795;47.054;15.408;2023-11-22T02:11:58;97210;;;3.2;99.4
23253;BME280;11795;47.054;15.408;2023-11-22T02:13:57;97210;;;3.4;99.4
23253;BME280;11795;47.054;15.408;2023-11-22T02:15:59;97210;;;3.2;99.3
23253;BME280;11795;47.054;15.408;2023-11-22T02:17:57;97220;;;3.0;99.7
23253;BME280;11795;47.054;15.408;2023-11-22T02:19:57;97220;;;3.1;99.4
23253;BME280;11795;47.054;15.408;2023-11-22T02:21:57;97220;;;3.0;100.0
23253;BME280;11795;47.054;15.408;2023-11-22T02:23:57;97230;;;3.2;99.7
23253;BME280;11795;47.054;15.408;2023-11-22T02:25:59;97230;;;3.0;99.3
23253;BME280;11795;47.054;15.408;2023-11-22T02:27:57;97240;;;2.9;100.0
23253;BME280;11795;47.054;15.408;2023-11-22T02:29:57;97230;;;3.0;99.4
23253;BME280;11795;47.054;15.408;2023-11-22T02:31:57;97240;;;2.7;100.0
23253;BME280;11795;47.054;15.408;2023-11-22T02:33:57;97230;;;2.9;100.0
23253;BME280;11795;47.054;15.408;2023-11-22T02:35:57;97230;;;2.8;100.0
23253;BME280;11795;47.054;15.408;2023-11-22T02:37:57;97240;;;2.7;100.0
23253;BME280;11795;47.054;15.408;2023-11-22T02:40:02;97230;;;2.8;100.0
23253;BME280;11795;47.054;15.408;2023-11-22T02:41:58;97240;;;2.7;100.0
23253;BME280;11795;47.054;15.408;2023-11-22T02:43:57;97240;;;2.9;100.0
23253;BME280;11795;47.054;15.408;2023-11-22T02:45:57;97240;;;2.6;100.0
23253;BME280;11795;47.054;15.408;2023-11-22T02:47:57;97250;;;2.6;100.0
23253;BME280;11795;47.054;15.408;2023-11-22T02:49:57;97240;;;2.7;100.0
23253;BME280;11795;47.054;15.408;2023-11-22T02:51:57;97240;;;2.6;100.0
23253;BME280;11795;47.054;15.408;2023-11-22T02:53:57;97240;;;2.8;100.0
23253;BME280;11795;47.054;15.408;2023-11-22T02:55:59;97230;;;2.6;100.0
23253;BME280;11795;47.054;15.408;2023-11-22T02:57:57;97230;;;2.6;100.0
23253;BME280;11795;47.054;15.408;2023-11-22T02:59:57;97230;;;2.7;99.5
23253;BME280;11795;47.054;15.408;2023-11-22T03:01:57;97240;;;2.5;100.0
23253;BME280;11795;47.054;15.408;2023-11-22T03:03:59;97230;;;2.7;100.0
23253;BME280;11795;47.054;15.408;2023-11-22T03:05:57;97220;;;2.6;99.7
23253;BME280;11795;47.054;15.408;2023-11-22T03:07:58;97220;;;2.5;99.8
23253;BME280;11795;47.054;15.408;2023-11-22T03:10:00;97230;;;2.5;99.4
23253;BME280;11795;47.054;15.408;2023-11-22T03:11:57;97240;;;2.3;100.0
23253;BME280;11795;47.054;15.408;2023-11-22T03:13:57;97240;;;2.2;100.0
23253;BME280;11795;47.054;15.408;2023-11-22T03:15:57;97250;;;2.1;100.0
23253;BME280;11795;47.054;15.408;2023-11-22T03:17:59;97240;;;2.2;100.0
23253;BME280;11795;47.054;15.408;2023-11-22T03:19:57;97240;;;2.4;100.0
23253;BME280;11795;47.054;15.408;2023-11-22T03:21:58;97240;;;2.4;100.0
23253;BME280;11795;47.054;15.408;2023-11-22T03:23:58;97240;;;2.6;100.0
23253;BME280;11795;47.054;15.408;2023-11-22T03:25:58;97240;;;2.4;100.0
23253;BME280;11795;47.054;15.408;2023-11-22T03:27:57;97240;;;2.3;100.0
23253;BME280;11795;47.054;15.408;2023-11-22T03:29:59;97250;;;2.5;100.0
23253;BME280;11795;47.054;15.408;2023-11-22T03:31:57;97250;;;2.4;100.0
23253;BME280;11795;47.054;15.408;2023-11-22T03:33:57;97260;;;2.5;100.0
23253;BME280;11795;47.054;15.408;2023-11-22T03:35:58;97260;;;2.3;100.0
23253;BME280;11795;47.054;15.408;2023-11-22T03:37:57;97260;;;2.2;100.0
23253;BME280;11795;47.054;15.408;2023-11-22T03:39:57;97260;;;2.3;100.0
23253;BME280;11795;47.054;15.408;2023-11-22T03:41:57;97260;;;2.2;100.0
23253;BME280;11795;47.054;15.408;2023-11-22T03:43:57;97260;;;2.5;100.0
23253;BME280;11795;47.054;15.408;2023-11-22T03:45:57;97260;;;2.3;100.0
23253;BME280;11795;47.054;15.408;2023-11-22T03:47:57;97270;;;2.2;100.0
23253;BME280;11795;47.054;15.408;2023-11-22T03:49:57;97270;;;2.3;99.9
23253;BME280;11795;47.054;15.408;2023-11-22T03:51:57;97280;;;2.2;100.0
23253;BME280;11795;47.054;15.408;2023-11-22T03:53:57;97280;;;2.4;100.0
23253;BME280;11795;47.054;15.408;2023-11-22T03:55:57;97290;;;2.3;100.0
23253;BME280;11795;47.054;15.408;2023-11-22T03:57:57;97290;;;2.2;100.0
23253;BME280;11795;47.054;15.408;2023-11-22T03:59:57;97290;;;2.4;100.0
23253;BME280;11795;47.054;15.408;2023-11-22T04:01:57;97290;;;2.3;100.0
23253;BME280;11795;47.054;15.408;2023-11-22T04:03:57;97280;;;2.5;100.0
23253;BME280;11795;47.054;15.408;2023-11-22T04:05:57;97280;;;2.4;100.0
23253;BME280;11795;47.054;15.408;2023-11-22T04:07:57;97280;;;2.3;100.0
23253;BME280;11795;47.054;15.408;2023-11-22T04:09:57;97280;;;2.5;100.0
23253;BME280;11795;47.054;15.408;2023-11-22T04:11:58;97290;;;2.4;100.0
23253;BME280;11795;47.054;15.408;2023-11-22T04:13:57;97290;;;2.6;100.0
23253;BME280;11795;47.054;15.408;2023-11-22T04:15:57;97290;;;2.4;100.0
23253;BME280;11795;47.054;15.408;2023-11-22T04:17:57;97290;;;2.3;100.0
23253;BME280;11795;47.054;15.408;2023-11-22T04:19:57;97290;;;2.4;100.0
23253;BME280;11795;47.054;15.408;2023-11-22T04:21:57;97300;;;2.3;100.0
23253;BME280;11795;47.054;15.408;2023-11-22T04:23:57;97290;;;2.5;100.0
23253;BME280;11795;47.054;15.408;2023-11-22T04:25:58;97300;;;2.4;100.0
23253;BME280;11795;47.054;15.408;2023-11-22T04:27:57;97300;;;2.2;100.0
23253;BME280;11795;47.054;15.408;2023-11-22T04:29:57;97310;;;2.4;100.0
23253;BME280;11795;47.054;15.408;2023-11-22T04:31:57;97320;;;2.3;100.0
23253;BME280;11795;47.054;15.408;2023-11-22T04:33:58;97320;;;2.5;100.0
23253;BME280;11795;47.054;15.408;2023-11-22T04:35:57;97320;;;2.3;99.6
23253;BME280;11795;47.054;15.408;2023-11-22T04:37:58;97320;;;2.2;100.0
23253;BME280;11795;47.054;15.408;2023-11-22T04:39:57;97330;;;2.3;99.4
23253;BME280;11795;47.054;15.408;2023-11-22T04:41:57;97330;;;2.2;99.5
23253;BME280;11795;47.054;15.408;2023-11-22T04:43:57;97330;;;2.4;99.1
23253;BME280;11795;47.054;15.408;2023-11-22T04:45:58;97340;;;2.3;98.9
23253;BME280;11795;47.054;15.408;2023-11-22T04:47:57;97340;;;2.1;99.3
23253;BME280;11795;47.054;15.408;2023-11-22T04:49:57;97350;;;2.2;98.5
23253;BME280;11795;47.054;15.408;2023-11-22T04:51:57;97360;;;2.1;99.2
23253;BME280;11795;47.054;15.408;2023-11-22T04:53:57;97350;;;2.1;100.0
23253;BME280;11795;47.054;15.408;2023-11-22T04:55:57;97360;;;2.1;100.0
23253;BME280;11795;47.054;15.408;2023-11-22T04:57:57;97360;;;2.1;100.0
23253;BME280;11795;47.054;15.408;2023-11-22T04:59:57;97360;;;2.2;99.3
23253;BME280;11795;47.054;15.408;2023-11-22T05:01:57;97370;;;2.0;99.5
23253;BME280;11795;47.054;15.408;2023-11-22T05:03:57;97370;;;2.1;100.0
23253;BME280;11795;47.054;15.408;2023-11-22T05:05:57;97370;;;2.0;99.7
23253;BME280;11795;47.054;15.408;2023-11-22T05:07:57;97380;;;2.0;100.0
23253;BME280;11795;47.054;15.408;2023-11-22T05:09:57;97380;;;2.1;99.3
23253;BME280;11795;47.054;15.408;2023-11-22T05:11:57;97380;;;1.9;99.8
23253;BME280;11795;47.054;15.408;2023-11-22T05:13:57;97380;;;2.0;100.0
23253;BME280;11795;47.054;15.408;2023-11-22T05:15:57;97390;;;1.9;99.6
23253;BME280;11795;47.054;15.408;2023-11-22T05:17:57;97390;;;1.8;100.0
23253;BME280;11795;47.054;15.408;2023-11-22T05:19:57;97390;;;2.0;99.2
23253;BME280;11795;47.054;15.408;2023-11-22T05:21:57;97400;;;1.8;99.7
23253;BME280;11795;47.054;15.408;2023-11-22T05:23:58;97400;;;2.0;100.0
23253;BME280;11795;47.054;15.408;2023-11-22T05:25:57;97400;;;1.9;99.6
23253;BME280;11795;47.054;15.408;2023-11-22T05:27:57;97400;;;1.8;100.0
23253;BME280;11795;47.054;15.408;2023-11-22T05:29:57;97400;;;1.9;99.7
23253;BME280;11795;47.054;15.408;2023-11-22T05:31:57;97410;;;1.8;100.0
23253;BME280;11795;47.054;15.408;2023-11-22T05:33:57;97410;;;2.0;100.0
23253;BME280;11795;47.054;15.408;2023-11-22T05:35:57;97420;;;1.9;100.0
23253;BME280;11795;47.054;15.408;2023-11-22T05:37:57;97420;;;1.8;100.0
23253;BME280;11795;47.054;15.408;2023-11-22T05:39:57;97430;;;2.0;99.8
23253;BME280;11795;47.054;15.408;2023-11-22T05:41:57;97430;;;1.8;100.0
23253;BME280;11795;47.054;15.408;2023-11-22T05:43:58;97420;;;2.0;100.0
23253;BME280;11795;47.054;15.408;2023-11-22T05:45:57;97430;;;1.9;99.9
23253;BME280;11795;47.054;15.408;2023-11-22T05:47:57;97430;;;1.8;100.0
23253;BME280;11795;47.054;15.408;2023-11-22T05:49:57;97430;;;2.0;99.7
23253;BME280;11795;47.054;15.408;2023-11-22T05:51:57;97440;;;1.9;99.9
23253;BME280;11795;47.054;15.408;2023-11-22T05:53:57;97450;;;2.1;99.4
23253;BME280;11795;47.054;15.408;2023-11-22T05:55:57;97450;;;1.9;99.1
23253;BME280;11795;47.054;15.408;2023-11-22T05:57:57;97450;;;1.9;99.6
23253;BME280;11795;47.054;15.408;2023-11-22T05:59:57;97450;;;2.0;98.6
23253;BME280;11795;47.054;15.408;2023-11-22T06:01:57;97460;;;1.8;99.0
23253;BME280;11795;47.054;15.408;2023-11-22T06:03:57;97450;;;1.9;99.4
23253;BME280;11795;47.054;15.408;2023-11-22T06:05:57;97450;;;1.9;99.1
23253;BME280;11795;47.054;15.408;2023-11-22T06:07:57;97450;;;1.8;99.8
23253;BME280;11795;47.054;15.408;2023-11-22T06:09:57;97450;;;2.0;99.3
23253;BME280;11795;47.054;15.408;2023-11-22T06:11:57;97450;;;1.9;99.6
23253;BME280;11795;47.054;15.408;2023-11-22T06:13:57;97460;;;2.0;99.7
23253;BME280;11795;47.054;15.408;2023-11-22T06:15:57;97470;;;2.0;99.3
23253;BME280;11795;47.054;15.408;2023-11-22T06:17:58;97480;;;1.9;99.9
23253;BME280;11795;47.054;15.408;2023-11-22T06:19:57;97480;;;2.1;99.6
23253;BME280;11795;47.054;15.408;2023-11-22T06:21:57;97480;;;2.0;100.0
23253;BME280;11795;47.054;15.408;2023-11-22T06:23:58;97480;;;2.1;100.0
23253;BME280;11795;47.054;15.408;2023-11-22T06:25:57;97480;;;2.1;100.0
23253;BME280;11795;47.054;15.408;2023-11-22T06:27:57;97480;;;2.0;100.0
23253;BME280;11795;47.054;15.408;2023-11-22T06:29:58;97490;;;2.2;100.0
23253;BME280;11795;47.054;15.408;2023-11-22T06:31:57;97500;;;2.1;100.0
23253;BME280;11795;47.054;15.408;2023-11-22T06:33:57;97510;;;2.2;100.0
23253;BME280;11795;47.054;15.408;2023-11-22T06:35:57;97510;;;2.1;100.0
23253;BME280;11795;47.054;15.408;2023-11-22T06:37:57;97510;;;2.1;100.0
23253;BME280;11795;47.054;15.408;2023-11-22T06:39:57;97510;;;2.3;100.0
23253;BME280;11795;47.054;15.408;2023-11-22T06:41:57;97520;;;2.3;100.0
23253;BME280;11795;47.054;15.408;2023-11-22T06:43:57;97520;;;2.5;100.0
23253;BME280;11795;47.054;15.408;2023-11-22T06:45:57;97520;;;2.5;100.0
23253;BME280;11795;47.054;15.408;2023-11-22T06:47:58;97520;;;2.4;100.0
23253;BME280;11795;47.054;15.408;2023-11-22T06:49:58;97520;;;2.5;99.8
23253;BME280;11795;47.054;15.408;2023-11-22T06:51:57;97530;;;2.3;100.0
23253;BME280;11795;47.054;15.408;2023-11-22T06:53:57;97530;;;2.4;100.0
23253;BME280;11795;47.054;15.408;2023-11-22T06:55:57;97540;;;2.3;100.0
23253;BME280;11795;47.054;15.408;2023-11-22T06:57:57;97550;;;2.3;100.0
23253;BME280;11795;47.054;15.408;2023-11-22T06:59:57;97550;;;2.4;100.0
23253;BME280;11795;47.054;15.408;2023-11-22T07:01:57;97550;;;2.3;100.0
23253;BME280;11795;47.054;15.408;2023-11-22T07:03:57;97550;;;2.5;100.0
23253;BME280;11795;47.054;15.408;2023-11-22T07:05:57;97550;;;2.5;100.0
23253;BME280;11795;47.054;15.408;2023-11-22T07:07:57;97550;;;2.5;100.0
23253;BME280;11795;47.054;15.408;2023-11-22T07:09:58;97560;;;2.6;100.0
23253;BME280;11795;47.054;15.408;2023-11-22T07:11:57;97570;;;2.6;100.0
23253;BME280;11795;47.054;15.408;2023-11-22T07:13:57;97570;;;2.8;100.0
23253;BME280;11795;47.054;15.408;2023-11-22T07:15:57;97560;;;2.7;100.0
23253;BME280;11795;47.054;15.408;2023-11-22T07:17:57;97570;;;2.7;100.0
23253;BME280;11795;47.054;15.408;2023-11-22T07:19:57;97570;;;3.0;99.7
23253;BME280;11795;47.054;15.408;2023-11-22T07:21:58;97560;;;2.9;99.7
23253;BME280;11795;47.054;15.408;2023-11-22T07:23:59;97570;;;3.1;99.2
23253;BME280;11795;47.054;15.408;2023-11-22T07:25:57;97580;;;3.0;98.8
23253;BME280;11795;47.054;15.408;2023-11-22T07:27:57;97590;;;3.0;99.8
23253;BME280;11795;47.054;15.408;2023-11-22T07:29:57;97590;;;3.1;100.0
23253;BME280;11795;47.054;15.408;2023-11-22T07:31:58;97580;;;3.0;100.0
23253;BME280;11795;47.054;15.408;2023-11-22T07:33:57;97580;;;3.3;100.0
23253;BME280;11795;47.054;15.408;2023-11-22T07:35:58;97580;;;3.3;99.7
23253;BME280;11795;47.054;15.408;2023-11-22T07:37:58;97590;;;3.2;100.0
23253;BME280;11795;47.054;15.408;2023-11-22T07:39:57;97590;;;3.4;99.5
23253;BME280;11795;47.054;15.408;2023-11-22T07:41:57;97600;;;3.3;99.9
23253;BME280;11795;47.054;15.408;2023-11-22T07:43:57;97590;;;3.5;100.0
23253;BME280;11795;47.054;15.408;2023-11-22T07:46:00;97600;;;3.5;99.6
23253;BME280;11795;47.054;15.408;2023-11-22T07:47:59;97600;;;3.5;100.0
23253;BME280;11795;47.054;15.408;2023-11-22T07:49:57;97600;;;3.7;99.5
23253;BME280;11795;47.054;15.408;2023-11-22T07:51:57;97590;;;3.7;100.0
23253;BME280;11795;47.054;15.408;2023-11-22T07:53:57;97590;;;3.9;99.7
23253;BME280;11795;47.054;15.408;2023-11-22T07:55:57;97600;;;3.9;98.6
23253;BME280;11795;47.054;15.408;2023-11-22T07:57:58;97600;;;3.9;98.7
23253;BME280;11795;47.054;15.408;2023-11-22T07:59:57;97610;;;4.1;97.8
23253;BME280;11795;47.054;15.408;2023-11-22T08:01:57;97610;;;4.0;98.4
23253;BME280;11795;47.054;15.408;2023-11-22T08:03:57;97620;;;4.1;98.7
23253;BME280;11795;47.054;15.408;2023-11-22T08:05:57;97610;;;4.1;98.1
23253;BME280;11795;47.054;15.408;2023-11-22T08:07:57;97620;;;4.2;98.8
23253;BME280;11795;47.054;15.408;2023-11-22T08:09:57;97610;;;4.5;98.1
23253;BME280;11795;47.054;15.408;2023-11-22T08:11:57;97620;;;4.7;98.0
23253;BME280;11795;47.054;15.408;2023-11-22T08:13:59;97620;;;5.4;97.0
23253;BME280;11795;47.054;15.408;2023-11-22T08:15:57;97610;;;6.2;92.9
23253;BME280;11795;47.054;15.408;2023-11-22T08:17:57;97610;;;6.6;88.5
23253;BME280;11795;47.054;15.408;2023-11-22T08:19:58;97610;;;7.4;85.7
23253;BME280;11795;47.054;15.408;2023-11-22T08:21:57;97600;;;9.1;80.2
23253;BME280;11795;47.054;15.408;2023-11-22T08:23:57;97600;;;11.1;69.9
23253;BME280;11795;47.054;15.408;2023-11-22T08:25:58;97590;;;12.6;59.6
23253;BME280;11795;47.054;15.408;2023-11-22T08:27:57;97590;;;14.0;56.9
23253;BME280;11795;47.054;15.408;2023-11-22T08:29:57;97590;;;15.5;53.8
23253;BME280;11795;47.054;15.408;2023-11-22T08:31:58;97590;;;16.5;50.6
23253;BME280;11795;47.054;15.408;2023-11-22T08:33:57;97590;;;17.5;48.6
23253;BME280;11795;47.054;15.408;2023-11-22T08:35:58;97590;;;18.2;45.7
23253;BME280;11795;47.054;15.408;2023-11-22T08:37:58;97590;;;18.5;44.1
23253;BME280;11795;47.054;15.408;2023-11-22T08:39:57;97590;;;19.2;42.3
23253;BME280;11795;47.054;15.408;2023-11-22T08:41:58;97590;;;19.2;41.3
23253;BME280;11795;47.054;15.408;2023-11-22T08:43:57;97600;;;19.6;40.0
23253;BME280;11795;47.054;15.408;2023-11-22T08:45:57;97600;;;19.7;39.0
23253;BME280;11795;47.054;15.408;2023-11-22T08:47:57;97610;;;19.5;39.7
23253;BME280;11795;47.054;15.408;2023-11-22T08:49:57;97610;;;20.1;38.1
23253;BME280;11795;47.054;15.408;2023-11-22T08:51:59;97620;;;19.8;38.0
23253;BME280;11795;47.054;15.408;2023-11-22T08:53:57;97630;;;19.7;38.3
23253;BME280;11795;47.054;15.408;2023-11-22T08:55:57;97620;;;19.5;37.6
23253;BME280;11795;47.054;15.408;2023-11-22T08:57:59;97610;;;19.3;38.8
23253;BME280;11795;47.054;15.408;2023-11-22T09:00:01;97620;;;19.7;37.0
23253;BME280;11795;47.054;15.408;2023-11-22T09:01:57;97620;;;19.2;38.9
23253;BME280;11795;47.054;15.408;2023-11-22T09:03:57;97620;;;19.3;38.8
23253;BME280;11795;47.054;15.408;2023-11-22T09:05:57;97630;;;18.8;39.2
23253;BME280;11795;47.054;15.408;2023-11-22T09:07:59;97630;;;18.1;41.0
23253;BME280;11795;47.054;15.408;2023-11-22T09:09:58;97630;;;18.4;40.3
23253;BME280;11795;47.054;15.408;2023-11-22T09:11:57;97630;;;17.1;42.9
23253;BME280;11795;47.054;15.408;2023-11-22T09:13:58;97630;;;16.4;42.7
23253;BME280;11795;47.054;15.408;2023-11-22T09:15:57;97630;;;15.5;45.3
23253;BME280;11795;47.054;15.408;2023-11-22T09:17:58;97630;;;15.0;47.1
23253;BME280;11795;47.054;15.408;2023-11-22T09:19:58;97620;;;14.4;49.7
23253;BME280;11795;47.054;15.408;2023-11-22T09:21:58;97620;;;14.1;50.7
23253;BME280;11795;47.054;15.408;2023-11-22T09:23:57;97620;;;13.3;51.7
23253;BME280;11795;47.054;15.408;2023-11-22T09:25:57;97620;;;12.8;54.8
23253;BME280;11795;47.054;15.408;2023-11-22T09:27:59;97630;;;12.8;55.5
23253;BME280;11795;47.054;15.408;2023-11-22T09:29:57;97630;;;12.9;54.7
23253;BME280;11795;47.054;15.408;2023-11-22T09:31:57;97630;;;12.6;55.8
23253;BME280;11795;47.054;15.408;2023-11-22T09:33:57;97630;;;11.9;56.8
23253;BME280;11795;47.054;15.408;2023-11-22T09:35:58;97630;;;12.0;58.1
23253;BME280;11795;47.054;15.408;2023-11-22T09:37:57;97630;;;11.9;59.0
23253;BME280;11795;47.054;15.408;2023-11-22T09:39:58;97630;;;12.0;58.9
23253;BME280;11795;47.054;15.408;2023-11-22T09:41:57;97630;;;11.9;59.9
23253;BME280;11795;47.054;15.408;2023-11-22T09:43:58;97630;;;11.8;59.4
23253;BME280;11795;47.054;15.408;2023-11-22T09:45:57;97630;;;11.7;59.6
23253;BME280;11795;47.054;15.408;2023-11-22T09:47:57;97630;;;11.6;60.9
23253;BME280;11795;47.054;15.408;2023-11-22T09:49:57;97640;;;11.7;59.9
23253;BME280;11795;47.054;15.408;2023-11-22T09:52:00;97640;;;11.4;61.0
23253;BME280;11795;47.054;15.408;2023-11-22T09:53:59;97640;;;11.4;62.4
23253;BME280;11795;47.054;15.408;2023-11-22T09:55:57;97640;;;11.6;62.5
23253;BME280;11795;47.054;15.408;2023-11-22T09:57:58;97640;;;11.6;61.9
23253;BME280;11795;47.054;15.408;2023-11-22T09:59:57;97650;;;11.9;61.5
23253;BME280;11795;47.054;15.408;2023-11-22T10:01:59;97650;;;11.8;61.3
23253;BME280;11795;47.054;15.408;2023-11-22T10:03:57;97650;;;11.7;60.1
23253;BME280;11795;47.054;15.408;2023-11-22T10:05:58;97650;;;11.8;61.0
23253;BME280;11795;47.054;15.408;2023-11-22T10:07:57;97650;;;11.7;61.6
23253;BME280;11795;47.054;15.408;2023-11-22T10:10:01;97650;;;11.8;60.6
23253;BME280;11795;47.054;15.408;2023-11-22T10:11:58;97650;;;11.8;61.1
23253;BME280;11795;47.054;15.408;2023-11-22T10:13:57;97660;;;11.9;61.5
23253;BME280;11795;47.054;15.408;2023-11-22T10:16:08;97660;;;12.2;59.9
23253;BME280;11795;47.054;15.408;2023-11-22T10:17:58;97660;;;12.1;59.3
23253;BME280;11795;47.054;15.408;2023-11-22T10:19:57;97660;;;11.9;59.6
23253;BME280;11795;47.054;15.408;2023-11-22T10:22:02;97650;;;11.8;60.8
23253;BME280;11795;47.054;15.408;2023-11-22T10:24:00;97660;;;12.0;61.9
23253;BME280;11795;47.054;15.408;2023-11-22T10:25:57;97660;;;12.3;60.6
23253;BME280;11795;47.054;15.408;2023-11-22T10:27:58;97670;;;11.9;60.2
23253;BME280;11795;47.054;15.408;2023-11-22T10:29:58;97670;;;12.2;58.7
23253;BME280;11795;47.054;15.408;2023-11-22T10:31:57;97670;;;12.1;59.1
23253;BME280;11795;47.054;15.408;2023-11-22T10:33:57;97670;;;12.2;60.3
23253;BME280;11795;47.054;15.408;2023-11-22T10:35:57;97670;;;12.0;59.4
23253;BME280;11795;47.054;15.408;2023-11-22T10:37:59;97670;;;12.0;60.5
23253;BME280;11795;47.054;15.408;2023-11-22T10:39:57;97680;;;12.4;59.4
23253;BME280;11795;47.054;15.408;2023-11-22T10:41:59;97680;;;12.5;59.4
23253;BME280;11795;47.054;15.408;2023-11-22T10:43:57;97680;;;12.5;57.8
23253;BME280;11795;47.054;15.408;2023-11-22T10:45:57;97680;;;12.3;58.9
23253;BME280;11795;47.054;15.408;2023-11-22T10:47:58;97680;;;12.4;59.1
23253;BME280;11795;47.054;15.408;2023-11-22T10:49:57;97680;;;12.6;59.0
23253;BME280;11795;47.054;15.408;2023-11-22T10:51:57;97680;;;12.5;58.7
23253;BME280;11795;47.054;15.408;2023-11-22T10:53:59;97690;;;12.5;59.3
23253;BME280;11795;47.054;15.408;2023-11-22T10:56:03;97690;;;12.5;59.1
23253;BME280;11795;47.054;15.408;2023-11-22T10:58:01;97700;;;12.4;58.7
23253;BME280;11795;47.054;15.408;2023-11-22T11:00:03;97700;;;12.7;58.5
23253;BME280;11795;47.054;15.408;2023-11-22T11:02:01;97690;;;12.7;57.5
23253;BME280;11795;47.054;15.408;2023-11-22T11:04:01;97700;;;12.4;58.8
23253;BME280;11795;47.054;15.408;2023-11-22T11:05:58;97710;;;12.0;60.9
23253;BME280;11795;47.054;15.408;2023-11-22T11:08:00;97710;;;12.0;60.6
23253;BME280;11795;47.054;15.408;2023-11-22T11:09:59;97710;;;12.1;60.5
23253;BME280;11795;47.054;15.408;2023-11-22T11:11:58;97710;;;11.9;61.4
23253;BME280;11795;47.054;15.408;2023-11-22T11:13:57;97710;;;11.8;62.4
23253;BME280;11795;47.054;15.408;2023-11-22T11:15:57;97720;;;11.8;62.3